sensor_id;sensor_type;location;lat;lon;timestamp;pressure;altitude;pressure_sealevel;temperature;humidity
58761;BME280;44529;47.464;19.014;2023-03-04T00:01:52;100318.41;;;2.67;69.54
58761;BME280;44529;47.464;19.014;2023-03-04T00:04:55;100325.88;;;2.65;69.22
58761;BME280;44529;47.464;19.014;2023-03-04T00:07:57;100332.34;;;2.75;69.40
58761;BME280;44529;47.464;19.014;2023-03-04T00:11:00;100325.09;;;2.70;69.57
58761;BME280;44529;47.464;19.014;2023-03-04T00:14:02;100323.44;;;2.64;70.20
58761;BME280;44529;47.464;19.014;2023-03-04T00:17:04;100322.41;;;2.65;69.86
58761;BME280;44529;47.464;19.014;2023-03-04T00:20:08;100325.84;;;2.60;70.09
58761;BME280;44529;47.464;19.014;2023-03-04T00:23:10;100326.59;;;2.56;70.11
58761;BME280;44529;47.464;19.014;2023-03-04T00:26:13;100320.50;;;2.60;70.40
58761;BME280;44529;47.464;19.014;2023-03-04T00:29:16;100329.81;;;2.53;70.62
58761;BME280;44529;47.464;19.014;2023-03-04T00:32:18;100319.41;;;2.56;69.35
58761;BME280;44529;47.464;19.014;2023-03-04T00:35:21;100314.09;;;2.61;68.74
58761;BME280;44529;47.464;19.014;2023-03-04T00:38:23;100311.69;;;2.60;69.21
58761;BME280;44529;47.464;19.014;2023-03-04T00:41:25;100314.84;;;2.52;69.89
58761;BME280;44529;47.464;19.014;2023-03-04T00:44:28;100320.62;;;2.43;69.90
58761;BME280;44529;47.464;19.014;2023-03-04T00:47:30;100325.97;;;2.38;69.62
58761;BME280;44529;47.464;19.014;2023-03-04T00:50:32;100326.34;;;2.25;70.57
58761;BME280;44529;47.464;19.014;2023-03-04T00:53:35;100319.91;;;2.16;70.79
58761;BME280;44529;47.464;19.014;2023-03-04T00:56:37;100315.28;;;2.06;70.87
58761;BME280;44529;47.464;19.014;2023-03-04T00:59:40;100312.41;;;2.13;69.45
58761;BME280;44529;47.464;19.014;2023-03-04T01:02:44;100307.09;;;2.18;69.46
58761;BME280;44529;47.464;19.014;2023-03-04T01:05:48;100298.59;;;2.21;69.08
58761;BME280;44529;47.464;19.014;2023-03-04T01:08:50;100300.63;;;2.09;69.85
58761;BME280;44529;47.464;19.014;2023-03-04T01:11:52;100298.56;;;2.16;68.82
58761;BME280;44529;47.464;19.014;2023-03-04T01:14:55;100296.31;;;2.03;71.22
58761;BME280;44529;47.464;19.014;2023-03-04T01:17:57;100279.19;;;1.99;70.98
58761;BME280;44529;47.464;19.014;2023-03-04T01:21:00;100283.78;;;2.03;71.04
58761;BME280;44529;47.464;19.014;2023-03-04T01:24:03;100286.66;;;1.97;71.61
58761;BME280;44529;47.464;19.014;2023-03-04T01:27:06;100294.59;;;1.92;71.78
58761;BME280;44529;47.464;19.014;2023-03-04T01:30:09;100283.66;;;1.88;72.24
58761;BME280;44529;47.464;19.014;2023-03-04T01:33:11;100287.28;;;1.77;72.54
58761;BME280;44529;47.464;19.014;2023-03-04T01:36:15;100288.06;;;1.77;73.10
58761;BME280;44529;47.464;19.014;2023-03-04T01:39:18;100280.81;;;1.68;74.31
58761;BME280;44529;47.464;19.014;2023-03-04T01:42:22;100277.56;;;1.66;72.64
58761;BME280;44529;47.464;19.014;2023-03-04T01:45:25;100272.97;;;1.61;74.42
58761;BME280;44529;47.464;19.014;2023-03-04T01:48:31;100261.84;;;1.64;73.05
58761;BME280;44529;47.464;19.014;2023-03-04T01:51:35;100262.31;;;1.61;73.72
58761;BME280;44529;47.464;19.014;2023-03-04T01:54:38;100253.44;;;1.50;73.03
58761;BME280;44529;47.464;19.014;2023-03-04T01:57:40;100263.38;;;1.60;73.26
58761;BME280;44529;47.464;19.014;2023-03-04T02:00:43;100258.91;;;1.66;72.56
58761;BME280;44529;47.464;19.014;2023-03-04T02:03:45;100258.38;;;1.63;72.72
58761;BME280;44529;47.464;19.014;2023-03-04T02:06:48;100255.75;;;1.69;72.24
58761;BME280;44529;47.464;19.014;2023-03-04T02:09:51;100250.84;;;1.60;71.95
58761;BME280;44529;47.464;19.014;2023-03-04T02:12:53;100250.03;;;1.55;72.66
58761;BME280;44529;47.464;19.014;2023-03-04T02:15:56;100243.63;;;1.56;72.25
58761;BME280;44529;47.464;19.014;2023-03-04T02:18:59;100232.72;;;1.57;72.70
58761;BME280;44529;47.464;19.014;2023-03-04T02:22:02;100240.47;;;1.59;71.24
58761;BME280;44529;47.464;19.014;2023-03-04T02:25:10;100233.72;;;1.51;71.31
58761;BME280;44529;47.464;19.014;2023-03-04T02:28:14;100222.75;;;1.48;71.35
58761;BME280;44529;47.464;19.014;2023-03-04T02:31:27;100216.63;;;1.47;71.82
58761;BME280;44529;47.464;19.014;2023-03-04T02:34:34;100219.13;;;1.59;72.26
58761;BME280;44529;47.464;19.014;2023-03-04T02:37:37;100223.94;;;1.57;72.10
58761;BME280;44529;47.464;19.014;2023-03-04T02:40:41;100219.34;;;1.52;71.27
58761;BME280;44529;47.464;19.014;2023-03-04T02:43:46;100215.12;;;1.56;70.25
58761;BME280;44529;47.464;19.014;2023-03-04T02:46:50;100207.78;;;1.42;71.72
58761;BME280;44529;47.464;19.014;2023-03-04T02:49:53;100212.50;;;1.34;71.79
58761;BME280;44529;47.464;19.014;2023-03-04T02:52:56;100210.28;;;1.26;70.40
58761;BME280;44529;47.464;19.014;2023-03-04T02:55:58;100212.41;;;1.24;71.66
58761;BME280;44529;47.464;19.014;2023-03-04T02:59:02;100196.91;;;1.21;71.73
58761;BME280;44529;47.464;19.014;2023-03-04T03:02:06;100194.22;;;1.16;71.82
58761;BME280;44529;47.464;19.014;2023-03-04T03:05:09;100193.84;;;1.29;70.78
58761;BME280;44529;47.464;19.014;2023-03-04T03:08:14;100192.06;;;1.40;70.74
58761;BME280;44529;47.464;19.014;2023-03-04T03:11:17;100209.25;;;1.27;70.93
58761;BME280;44529;47.464;19.014;2023-03-04T03:14:20;100196.44;;;1.24;70.99
58761;BME280;44529;47.464;19.014;2023-03-04T03:17:22;100198.84;;;1.26;69.83
58761;BME280;44529;47.464;19.014;2023-03-04T03:20:26;100192.19;;;1.28;69.98
58761;BME280;44529;47.464;19.014;2023-03-04T03:23:28;100185.97;;;1.18;70.67
58761;BME280;44529;47.464;19.014;2023-03-04T03:26:32;100190.09;;;1.30;69.37
58761;BME280;44529;47.464;19.014;2023-03-04T03:29:34;100175.94;;;1.25;68.92
58761;BME280;44529;47.464;19.014;2023-03-04T03:32:37;100175.25;;;1.40;68.90
58761;BME280;44529;47.464;19.014;2023-03-04T03:35:39;100182.47;;;1.39;68.35
58761;BME280;44529;47.464;19.014;2023-03-04T03:38:41;100183.00;;;1.41;67.97
58761;BME280;44529;47.464;19.014;2023-03-04T03:41:43;100177.94;;;1.40;67.77
58761;BME280;44529;47.464;19.014;2023-03-04T03:44:46;100176.91;;;1.46;67.75
58761;BME280;44529;47.464;19.014;2023-03-04T03:47:48;100170.69;;;1.35;67.00
58761;BME280;44529;47.464;19.014;2023-03-04T03:50:51;100169.28;;;1.27;68.31
58761;BME280;44529;47.464;19.014;2023-03-04T03:53:53;100166.41;;;1.29;66.98
58761;BME280;44529;47.464;19.014;2023-03-04T03:56:56;100166.69;;;1.32;67.84
58761;BME280;44529;47.464;19.014;2023-03-04T03:59:58;100174.62;;;1.27;67.38
58761;BME280;44529;47.464;19.014;2023-03-04T04:03:00;100166.56;;;1.22;68.07
58761;BME280;44529;47.464;19.014;2023-03-04T04:06:03;100179.59;;;1.19;69.03
58761;BME280;44529;47.464;19.014;2023-03-04T04:09:05;100171.75;;;1.07;69.42
58761;BME280;44529;47.464;19.014;2023-03-04T04:12:08;100172.00;;;1.05;69.53
58761;BME280;44529;47.464;19.014;2023-03-04T04:15:11;100179.19;;;1.05;69.95
58761;BME280;44529;47.464;19.014;2023-03-04T04:18:14;100164.34;;;0.87;70.17
58761;BME280;44529;47.464;19.014;2023-03-04T04:21:16;100155.31;;;0.88;70.40
58761;BME280;44529;47.464;19.014;2023-03-04T04:24:19;100162.56;;;0.93;68.88
58761;BME280;44529;47.464;19.014;2023-03-04T04:27:21;100169.03;;;1.02;70.62
58761;BME280;44529;47.464;19.014;2023-03-04T04:30:24;100170.69;;;1.08;68.85
58761;BME280;44529;47.464;19.014;2023-03-04T04:33:26;100171.75;;;1.07;69.50
58761;BME280;44529;47.464;19.014;2023-03-04T04:36:29;100166.81;;;1.21;66.65
58761;BME280;44529;47.464;19.014;2023-03-04T04:39:31;100147.97;;;1.27;67.37
58761;BME280;44529;47.464;19.014;2023-03-04T04:42:34;100159.69;;;1.26;68.30
58761;BME280;44529;47.464;19.014;2023-03-04T04:45:36;100168.09;;;1.13;69.18
58761;BME280;44529;47.464;19.014;2023-03-04T04:48:40;100158.84;;;1.21;69.07
58761;BME280;44529;47.464;19.014;2023-03-04T04:51:42;100157.44;;;1.13;69.44
58761;BME280;44529;47.464;19.014;2023-03-04T04:54:44;100159.63;;;1.16;68.51
58761;BME280;44529;47.464;19.014;2023-03-04T04:57:47;100160.41;;;1.17;69.02
58761;BME280;44529;47.464;19.014;2023-03-04T05:00:49;100159.63;;;1.21;68.64
58761;BME280;44529;47.464;19.014;2023-03-04T05:03:52;100151.25;;;1.34;68.76
58761;BME280;44529;47.464;19.014;2023-03-04T05:06:56;100154.69;;;1.35;69.12
58761;BME280;44529;47.464;19.014;2023-03-04T05:09:58;100144.84;;;1.62;67.44
58761;BME280;44529;47.464;19.014;2023-03-04T05:13:01;100146.69;;;1.62;68.01
58761;BME280;44529;47.464;19.014;2023-03-04T05:16:03;100153.31;;;1.59;69.22
58761;BME280;44529;47.464;19.014;2023-03-04T05:19:06;100165.25;;;1.52;68.83
58761;BME280;44529;47.464;19.014;2023-03-04T05:22:08;100155.56;;;1.73;67.98
58761;BME280;44529;47.464;19.014;2023-03-04T05:25:11;100159.19;;;1.94;68.12
58761;BME280;44529;47.464;19.014;2023-03-04T05:28:14;100159.19;;;1.94;66.88
58761;BME280;44529;47.464;19.014;2023-03-04T05:31:16;100165.28;;;1.89;67.65
58761;BME280;44529;47.464;19.014;2023-03-04T05:34:19;100168.75;;;1.89;66.81
58761;BME280;44529;47.464;19.014;2023-03-04T05:37:21;100157.69;;;2.08;66.92
58761;BME280;44529;47.464;19.014;2023-03-04T05:40:23;100159.28;;;2.09;66.86
58761;BME280;44529;47.464;19.014;2023-03-04T05:43:27;100171.56;;;2.10;67.39
58761;BME280;44529;47.464;19.014;2023-03-04T05:46:30;100178.22;;;2.07;67.40
58761;BME280;44529;47.464;19.014;2023-03-04T05:49:35;100182.75;;;2.07;68.71
58761;BME280;44529;47.464;19.014;2023-03-04T05:52:37;100178.22;;;2.07;67.50
58761;BME280;44529;47.464;19.014;2023-03-04T05:55:39;100182.22;;;2.10;67.47
58761;BME280;44529;47.464;19.014;2023-03-04T05:58:42;100177.44;;;2.12;67.82
58761;BME280;44529;47.464;19.014;2023-03-04T06:01:46;100193.19;;;2.18;67.97
58761;BME280;44529;47.464;19.014;2023-03-04T06:04:48;100194.50;;;2.11;68.05
58761;BME280;44529;47.464;19.014;2023-03-04T06:07:50;100192.41;;;2.13;67.65
58761;BME280;44529;47.464;19.014;2023-03-04T06:10:55;100192.66;;;2.16;67.73
58761;BME280;44529;47.464;19.014;2023-03-04T06:13:57;100202.84;;;2.20;68.31
58761;BME280;44529;47.464;19.014;2023-03-04T06:17:00;100203.13;;;2.23;67.59
58761;BME280;44529;47.464;19.014;2023-03-04T06:20:02;100207.94;;;2.26;65.76
58761;BME280;44529;47.464;19.014;2023-03-04T06:23:07;100209.56;;;2.27;66.18
58761;BME280;44529;47.464;19.014;2023-03-04T06:26:09;100211.69;;;2.30;65.54
58761;BME280;44529;47.464;19.014;2023-03-04T06:29:19;100211.28;;;2.49;66.94
58761;BME280;44529;47.464;19.014;2023-03-04T06:32:22;100212.06;;;2.49;66.42
58761;BME280;44529;47.464;19.014;2023-03-04T06:35:24;100220.84;;;2.44;67.35
58761;BME280;44529;47.464;19.014;2023-03-04T06:38:27;100213.44;;;2.52;66.62
58761;BME280;44529;47.464;19.014;2023-03-04T06:41:29;100219.87;;;2.61;66.08
58761;BME280;44529;47.464;19.014;2023-03-04T06:44:32;100220.97;;;2.70;66.71
58761;BME280;44529;47.464;19.014;2023-03-04T06:47:34;100219.13;;;2.70;66.40
58761;BME280;44529;47.464;19.014;2023-03-04T06:50:38;100224.47;;;2.76;67.66
58761;BME280;44529;47.464;19.014;2023-03-04T06:53:41;100216.22;;;2.82;66.79
58761;BME280;44529;47.464;19.014;2023-03-04T06:56:44;100220.53;;;2.88;67.49
58761;BME280;44529;47.464;19.014;2023-03-04T06:59:46;100210.41;;;2.95;68.24
58761;BME280;44529;47.464;19.014;2023-03-04T07:02:49;100229.69;;;3.08;67.80
58761;BME280;44529;47.464;19.014;2023-03-04T07:05:51;100214.75;;;3.12;68.01
58761;BME280;44529;47.464;19.014;2023-03-04T07:08:53;100213.97;;;3.26;67.13
58761;BME280;44529;47.464;19.014;2023-03-04T07:11:56;100211.84;;;3.34;66.10
58761;BME280;44529;47.464;19.014;2023-03-04T07:14:58;100218.81;;;3.40;66.70
58761;BME280;44529;47.464;19.014;2023-03-04T07:18:01;100215.38;;;3.49;66.30
58761;BME280;44529;47.464;19.014;2023-03-04T07:21:04;100218.84;;;3.65;65.28
58761;BME280;44529;47.464;19.014;2023-03-04T07:24:07;100215.66;;;3.73;65.29
58761;BME280;44529;47.464;19.014;2023-03-04T07:27:09;100214.88;;;3.83;64.84
58761;BME280;44529;47.464;19.014;2023-03-04T07:30:12;100218.06;;;3.90;64.85
58761;BME280;44529;47.464;19.014;2023-03-04T07:33:14;100210.84;;;4.01;64.06
58761;BME280;44529;47.464;19.014;2023-03-04T07:36:17;100214.34;;;4.06;64.09
58761;BME280;44529;47.464;19.014;2023-03-04T07:39:20;100209.78;;;4.07;63.81
58761;BME280;44529;47.464;19.014;2023-03-04T07:42:23;100210.59;;;4.13;62.41
58761;BME280;44529;47.464;19.014;2023-03-04T07:45:26;100208.69;;;4.18;61.60
58761;BME280;44529;47.464;19.014;2023-03-04T07:48:29;100207.88;;;4.23;63.88
58761;BME280;44529;47.464;19.014;2023-03-04T07:51:31;100203.59;;;4.32;62.90
58761;BME280;44529;47.464;19.014;2023-03-04T07:54:34;100200.88;;;4.47;61.48
58761;BME280;44529;47.464;19.014;2023-03-04T07:57:41;100202.16;;;4.65;61.39
58761;BME280;44529;47.464;19.014;2023-03-04T08:00:43;100205.59;;;4.76;60.45
58761;BME280;44529;47.464;19.014;2023-03-04T08:03:46;100207.44;;;4.91;59.24
58761;BME280;44529;47.464;19.014;2023-03-04T08:06:48;100203.88;;;5.05;57.27
58761;BME280;44529;47.464;19.014;2023-03-04T08:09:52;100199.28;;;5.16;57.59
58761;BME280;44529;47.464;19.014;2023-03-04T08:12:54;100206.41;;;5.31;56.91
58761;BME280;44529;47.464;19.014;2023-03-04T08:15:56;100200.09;;;5.56;54.18
58761;BME280;44529;47.464;19.014;2023-03-04T08:19:00;100205.16;;;5.62;54.16
58761;BME280;44529;47.464;19.014;2023-03-04T08:22:03;100202.34;;;5.78;53.96
58761;BME280;44529;47.464;19.014;2023-03-04T08:25:06;100199.34;;;5.84;53.62
58761;BME280;44529;47.464;19.014;2023-03-04T08:28:09;100201.94;;;6.00;51.89
58761;BME280;44529;47.464;19.014;2023-03-04T08:31:12;100197.97;;;6.21;52.66
58761;BME280;44529;47.464;19.014;2023-03-04T08:34:16;100200.88;;;6.77;50.07
58761;BME280;44529;47.464;19.014;2023-03-04T08:37:18;100213.06;;;7.69;47.70
58761;BME280;44529;47.464;19.014;2023-03-04T08:40:21;100209.59;;;8.48;47.15
58761;BME280;44529;47.464;19.014;2023-03-04T08:43:25;100205.31;;;9.02;45.41
58761;BME280;44529;47.464;19.014;2023-03-04T08:46:27;100196.91;;;9.39;45.37
58761;BME280;44529;47.464;19.014;2023-03-04T08:49:30;100192.03;;;10.09;43.05
58761;BME280;44529;47.464;19.014;2023-03-04T08:52:32;100192.38;;;10.38;43.21
58761;BME280;44529;47.464;19.014;2023-03-04T08:55:37;100204.00;;;10.87;42.92
58761;BME280;44529;47.464;19.014;2023-03-04T08:58:39;100195.63;;;11.15;40.61
58761;BME280;44529;47.464;19.014;2023-03-04T09:01:42;100203.63;;;11.54;40.13
58761;BME280;44529;47.464;19.014;2023-03-04T09:04:44;100190.72;;;11.86;39.37
58761;BME280;44529;47.464;19.014;2023-03-04T09:07:47;100190.94;;;12.28;39.14
58761;BME280;44529;47.464;19.014;2023-03-04T09:10:52;100187.59;;;12.31;38.34
58761;BME280;44529;47.464;19.014;2023-03-04T09:13:54;100176.03;;;12.51;37.47
58761;BME280;44529;47.464;19.014;2023-03-04T09:16:57;100180.91;;;12.66;37.53
58761;BME280;44529;47.464;19.014;2023-03-04T09:19:59;100164.47;;;12.92;36.65
58761;BME280;44529;47.464;19.014;2023-03-04T09:23:06;100176.03;;;12.51;38.16
58761;BME280;44529;47.464;19.014;2023-03-04T09:26:14;100173.69;;;12.70;37.89
58761;BME280;44529;47.464;19.014;2023-03-04T09:29:17;100167.78;;;12.68;37.69
58761;BME280;44529;47.464;19.014;2023-03-04T09:32:19;100156.34;;;12.63;37.91
58761;BME280;44529;47.464;19.014;2023-03-04T09:35:22;100155.53;;;12.33;37.50
58761;BME280;44529;47.464;19.014;2023-03-04T09:38:24;100157.22;;;11.99;38.86
58761;BME280;44529;47.464;19.014;2023-03-04T09:41:46;100156.47;;;12.37;37.64
58761;BME280;44529;47.464;19.014;2023-03-04T09:44:49;100157.72;;;11.84;38.87
58761;BME280;44529;47.464;19.014;2023-03-04T09:47:53;100159.16;;;11.90;40.32
58761;BME280;44529;47.464;19.014;2023-03-04T09:51:11;100171.84;;;12.24;38.59
58761;BME280;44529;47.464;19.014;2023-03-04T09:58:02;100164.12;;;11.62;39.59
58761;BME280;44529;47.464;19.014;2023-03-04T10:01:36;100157.75;;;11.23;40.78
58761;BME280;44529;47.464;19.014;2023-03-04T10:04:50;100153.75;;;11.03;41.76
58761;BME280;44529;47.464;19.014;2023-03-04T10:08:00;100143.34;;;10.71;42.34
58761;BME280;44529;47.464;19.014;2023-03-04T10:11:19;100148.44;;;10.81;42.59
58761;BME280;44529;47.464;19.014;2023-03-04T10:14:32;100151.34;;;10.93;41.74
58761;BME280;44529;47.464;19.014;2023-03-04T10:17:39;100144.84;;;11.11;41.63
58761;BME280;44529;47.464;19.014;2023-03-04T10:24:30;100149.88;;;10.78;42.55
58761;BME280;44529;47.464;19.014;2023-03-04T10:27:32;100146.91;;;10.89;42.26
58761;BME280;44529;47.464;19.014;2023-03-04T10:33:41;100142.75;;;10.91;43.49
58761;BME280;44529;47.464;19.014;2023-03-04T10:37:05;100143.53;;;11.00;40.88
58761;BME280;44529;47.464;19.014;2023-03-04T10:40:21;100134.63;;;10.91;42.11
58761;BME280;44529;47.464;19.014;2023-03-04T10:43:25;100141.66;;;11.09;41.71
58761;BME280;44529;47.464;19.014;2023-03-04T10:46:28;100134.19;;;11.15;41.12
58761;BME280;44529;47.464;19.014;2023-03-04T10:49:31;100125.91;;;11.11;40.27
58761;BME280;44529;47.464;19.014;2023-03-04T10:52:47;100127.34;;;11.09;41.39
58761;BME280;44529;47.464;19.014;2023-03-04T10:55:52;100135.59;;;11.04;41.45
58761;BME280;44529;47.464;19.014;2023-03-04T11:02:34;100136.50;;;10.65;40.11
58761;BME280;44529;47.464;19.014;2023-03-04T11:05:37;100111.03;;;10.74;40.40
58761;BME280;44529;47.464;19.014;2023-03-04T11:08:40;100113.75;;;10.74;40.39
58761;BME280;44529;47.464;19.014;2023-03-04T11:11:42;100109.13;;;10.75;39.60
58761;BME280;44529;47.464;19.014;2023-03-04T11:14:49;100121.09;;;10.82;38.32
58761;BME280;44529;47.464;19.014;2023-03-04T11:18:11;100113.91;;;10.69;38.33
58761;BME280;44529;47.464;19.014;2023-03-04T11:21:20;100093.56;;;10.63;39.24
58761;BME280;44529;47.464;19.014;2023-03-04T11:24:26;100089.88;;;10.68;39.63
58761;BME280;44529;47.464;19.014;2023-03-04T11:27:50;100092.59;;;10.68;39.35
58761;BME280;44529;47.464;19.014;2023-03-04T11:30:57;100100.56;;;10.73;39.32
58761;BME280;44529;47.464;19.014;2023-03-04T11:34:07;100089.41;;;10.66;39.72
58761;BME280;44529;47.464;19.014;2023-03-04T11:37:23;100074.31;;;10.73;39.53
58761;BME280;44529;47.464;19.014;2023-03-04T11:40:43;100074.97;;;11.05;39.08
58761;BME280;44529;47.464;19.014;2023-03-04T11:43:46;100063.81;;;11.15;39.27
58761;BME280;44529;47.464;19.014;2023-03-04T11:57:23;100053.00;;;11.06;38.42
58761;BME280;44529;47.464;19.014;2023-03-04T12:16:42;100043.13;;;11.10;39.65
58761;BME280;44529;47.464;19.014;2023-03-04T12:26:22;100024.94;;;11.37;40.88
58761;BME280;44529;47.464;19.014;2023-03-04T12:39:33;100012.34;;;11.41;40.25
58761;BME280;44529;47.464;19.014;2023-03-04T12:56:27;99992.47;;;11.84;38.67
58761;BME280;44529;47.464;19.014;2023-03-04T12:59:39;99979.34;;;11.56;39.16
58761;BME280;44529;47.464;19.014;2023-03-04T13:06:12;99974.50;;;11.71;40.38
58761;BME280;44529;47.464;19.014;2023-03-04T13:09:31;99957.53;;;11.91;39.85
58761;BME280;44529;47.464;19.014;2023-03-04T13:12:49;99947.63;;;11.95;39.38
58761;BME280;44529;47.464;19.014;2023-03-04T13:16:04;99955.56;;;12.00;39.48
58761;BME280;44529;47.464;19.014;2023-03-04T13:19:48;99940.75;;;11.98;39.69
58761;BME280;44529;47.464;19.014;2023-03-04T13:29:29;99917.66;;;12.42;38.48
58761;BME280;44529;47.464;19.014;2023-03-04T13:32:37;99915.16;;;12.37;39.06
58761;BME280;44529;47.464;19.014;2023-03-04T13:38:57;99904.41;;;12.61;38.65
58761;BME280;44529;47.464;19.014;2023-03-04T13:42:03;99893.47;;;12.37;36.67
58761;BME280;44529;47.464;19.014;2023-03-04T13:48:37;99899.94;;;12.44;34.40
58761;BME280;44529;47.464;19.014;2023-03-04T13:51:41;99886.31;;;12.32;33.83
58761;BME280;44529;47.464;19.014;2023-03-04T13:54:46;99888.44;;;12.27;33.47
58761;BME280;44529;47.464;19.014;2023-03-04T13:57:49;99887.03;;;12.41;33.85
58761;BME280;44529;47.464;19.014;2023-03-04T14:00:54;99862.72;;;12.66;32.16
58761;BME280;44529;47.464;19.014;2023-03-04T14:03:58;99865.53;;;12.57;32.75
58761;BME280;44529;47.464;19.014;2023-03-04T14:07:24;99862.84;;;12.69;32.65
58761;BME280;44529;47.464;19.014;2023-03-04T14:10:25;99854.03;;;12.72;32.46
58761;BME280;44529;47.464;19.014;2023-03-04T14:13:27;99859.66;;;12.67;31.99
58761;BME280;44529;47.464;19.014;2023-03-04T14:17:03;99847.47;;;12.73;32.49
58761;BME280;44529;47.464;19.014;2023-03-04T14:20:22;99857.13;;;12.83;32.00
58761;BME280;44529;47.464;19.014;2023-03-04T14:23:32;99859.34;;;12.81;31.57
58761;BME280;44529;47.464;19.014;2023-03-04T14:26:35;99854.59;;;13.23;30.96
58761;BME280;44529;47.464;19.014;2023-03-04T14:29:38;99847.41;;;13.92;29.29
58761;BME280;44529;47.464;19.014;2023-03-04T14:32:41;99856.16;;;13.73;29.41
58761;BME280;44529;47.464;19.014;2023-03-04T14:35:49;99847.34;;;13.52;29.33
58761;BME280;44529;47.464;19.014;2023-03-04T14:38:56;99852.75;;;13.15;29.41
58761;BME280;44529;47.464;19.014;2023-03-04T14:42:06;99861.66;;;12.91;30.24
58761;BME280;44529;47.464;19.014;2023-03-04T14:45:14;99858.53;;;12.68;31.12
58761;BME280;44529;47.464;19.014;2023-03-04T14:48:19;99866.91;;;12.42;31.74
58761;BME280;44529;47.464;19.014;2023-03-04T14:51:38;99865.53;;;12.36;31.88
58761;BME280;44529;47.464;19.014;2023-03-04T14:54:58;99849.00;;;12.29;32.51
58761;BME280;44529;47.464;19.014;2023-03-04T14:58:15;99841.75;;;12.21;32.85
58761;BME280;44529;47.464;19.014;2023-03-04T15:01:27;99846.03;;;12.22;32.55
58761;BME280;44529;47.464;19.014;2023-03-04T15:04:30;99851.75;;;12.08;33.96
58761;BME280;44529;47.464;19.014;2023-03-04T15:07:36;99844.84;;;12.32;33.29
58761;BME280;44529;47.464;19.014;2023-03-04T15:10:41;99847.94;;;12.76;32.35
58761;BME280;44529;47.464;19.014;2023-03-04T15:13:46;99845.00;;;12.81;32.31
58761;BME280;44529;47.464;19.014;2023-03-04T15:16:54;99849.66;;;12.47;32.97
58761;BME280;44529;47.464;19.014;2023-03-04T15:23:07;99837.31;;;12.16;34.04
58761;BME280;44529;47.464;19.014;2023-03-04T15:26:12;99849.28;;;12.15;34.32
58761;BME280;44529;47.464;19.014;2023-03-04T15:29:17;99841.44;;;12.02;34.33
58761;BME280;44529;47.464;19.014;2023-03-04T15:32:22;99849.22;;;11.82;34.24
58761;BME280;44529;47.464;19.014;2023-03-04T15:35:28;99848.37;;;11.61;35.18
58761;BME280;44529;47.464;19.014;2023-03-04T15:38:34;99835.91;;;11.69;35.21
58761;BME280;44529;47.464;19.014;2023-03-04T15:41:36;99850.03;;;11.53;35.17
58761;BME280;44529;47.464;19.014;2023-03-04T15:44:39;99841.19;;;11.35;35.05
58761;BME280;44529;47.464;19.014;2023-03-04T15:47:41;99845.03;;;11.26;35.68
58761;BME280;44529;47.464;19.014;2023-03-04T15:50:53;99853.97;;;11.26;36.24
58761;BME280;44529;47.464;19.014;2023-03-04T15:53:57;99847.22;;;11.03;36.38
58761;BME280;44529;47.464;19.014;2023-03-04T15:57:05;99842.94;;;10.93;36.57
58761;BME280;44529;47.464;19.014;2023-03-04T16:00:13;99841.47;;;10.57;38.17
58761;BME280;44529;47.464;19.014;2023-03-04T16:03:17;99836.53;;;10.60;38.08
58761;BME280;44529;47.464;19.014;2023-03-04T16:06:21;99855.16;;;10.35;38.99
58761;BME280;44529;47.464;19.014;2023-03-04T16:09:26;99840.50;;;10.01;40.15
58761;BME280;44529;47.464;19.014;2023-03-04T16:12:29;99836.06;;;10.06;38.93
58761;BME280;44529;47.464;19.014;2023-03-04T16:15:31;99834.47;;;10.04;39.20
58761;BME280;44529;47.464;19.014;2023-03-04T16:18:33;99833.34;;;9.80;38.98
58761;BME280;44529;47.464;19.014;2023-03-04T16:21:36;99823.47;;;9.58;39.06
58761;BME280;44529;47.464;19.014;2023-03-04T16:24:39;99834.06;;;9.37;40.39
58761;BME280;44529;47.464;19.014;2023-03-04T16:27:43;99830.12;;;9.52;40.29
58761;BME280;44529;47.464;19.014;2023-03-04T16:30:46;99827.34;;;9.26;40.01
58761;BME280;44529;47.464;19.014;2023-03-04T16:33:48;99832.66;;;9.00;41.36
58761;BME280;44529;47.464;19.014;2023-03-04T16:36:51;99830.25;;;8.98;40.29
58761;BME280;44529;47.464;19.014;2023-03-04T16:39:54;99841.16;;;8.84;40.68
58761;BME280;44529;47.464;19.014;2023-03-04T16:42:56;99828.59;;;8.80;40.04
58761;BME280;44529;47.464;19.014;2023-03-04T16:45:59;99838.09;;;8.77;39.95
58761;BME280;44529;47.464;19.014;2023-03-04T16:49:01;99833.44;;;8.69;39.79
58761;BME280;44529;47.464;19.014;2023-03-04T16:52:05;99825.97;;;8.66;39.92
58761;BME280;44529;47.464;19.014;2023-03-04T16:55:14;99826.41;;;8.59;40.17
58761;BME280;44529;47.464;19.014;2023-03-04T16:58:17;99812.63;;;8.61;39.96
58761;BME280;44529;47.464;19.014;2023-03-04T17:01:29;99815.88;;;8.49;40.00
58761;BME280;44529;47.464;19.014;2023-03-04T17:04:32;99822.81;;;8.41;40.47
58761;BME280;44529;47.464;19.014;2023-03-04T17:07:34;99819.97;;;8.24;41.27
58761;BME280;44529;47.464;19.014;2023-03-04T17:10:37;99818.94;;;8.34;41.13
58761;BME280;44529;47.464;19.014;2023-03-04T17:13:39;99823.53;;;8.33;41.05
58761;BME280;44529;47.464;19.014;2023-03-04T17:16:42;99833.69;;;8.14;41.46
58761;BME280;44529;47.464;19.014;2023-03-04T17:19:44;99835.69;;;8.08;41.99
58761;BME280;44529;47.464;19.014;2023-03-04T17:22:47;99841.28;;;8.12;42.03
58761;BME280;44529;47.464;19.014;2023-03-04T17:25:57;99836.69;;;8.12;41.87
58761;BME280;44529;47.464;19.014;2023-03-04T17:29:00;99829.75;;;7.98;41.63
58761;BME280;44529;47.464;19.014;2023-03-04T17:32:02;99839.03;;;7.92;42.12
58761;BME280;44529;47.464;19.014;2023-03-04T17:35:08;99843.34;;;7.93;42.45
58761;BME280;44529;47.464;19.014;2023-03-04T17:38:13;99840.56;;;7.84;42.14